sensor_id;sensor_type;location;lat;lon;timestamp;temperature;humidity
3198;DHT22;1611;49.394;11.136;2023-05-20T00:01:38;14.80;53.10
3198;DHT22;1611;49.394;11.136;2023-05-20T00:04:05;14.70;53.40
3198;DHT22;1611;49.394;11.136;2023-05-20T00:06:32;14.80;53.60
3198;DHT22;1611;49.394;11.136;2023-05-20T00:08:59;14.80;53.00
3198;DHT22;1611;49.394;11.136;2023-05-20T00:11:26;14.90;53.20
3198;DHT22;1611;49.394;11.136;2023-05-20T00:13:54;14.80;52.90
3198;DHT22;1611;49.394;11.136;2023-05-20T00:16:20;14.80;53.20
3198;DHT22;1611;49.394;11.136;2023-05-20T00:18:47;14.80;53.20
3198;DHT22;1611;49.394;11.136;2023-05-20T00:21:14;14.80;53.60
3198;DHT22;1611;49.394;11.136;2023-05-20T00:23:41;14.90;53.90
3198;DHT22;1611;49.394;11.136;2023-05-20T00:26:07;14.90;53.90
3198;DHT22;1611;49.394;11.136;2023-05-20T00:28:35;14.90;53.60
3198;DHT22;1611;49.394;11.136;2023-05-20T00:31:03;14.90;53.80
3198;DHT22;1611;49.394;11.136;2023-05-20T00:33:30;14.90;53.60
3198;DHT22;1611;49.394;11.136;2023-05-20T00:35:57;14.90;53.50
3198;DHT22;1611;49.394;11.136;2023-05-20T00:38:23;14.90;53.80
3198;DHT22;1611;49.394;11.136;2023-05-20T00:40:50;14.90;54.20
3198;DHT22;1611;49.394;11.136;2023-05-20T00:43:17;14.90;53.90
3198;DHT22;1611;49.394;11.136;2023-05-20T00:45:45;14.90;54.40
3198;DHT22;1611;49.394;11.136;2023-05-20T00:48:13;14.90;54.70
3198;DHT22;1611;49.394;11.136;2023-05-20T00:50:40;14.90;54.30
3198;DHT22;1611;49.394;11.136;2023-05-20T00:53:07;14.80;54.10
3198;DHT22;1611;49.394;11.136;2023-05-20T00:55:34;14.80;54.80
3198;DHT22;1611;49.394;11.136;2023-05-20T00:58:01;14.80;54.60
3198;DHT22;1611;49.394;11.136;2023-05-20T01:00:28;14.80;54.80
3198;DHT22;1611;49.394;11.136;2023-05-20T01:02:55;14.80;54.90
3198;DHT22;1611;49.394;11.136;2023-05-20T01:05:23;14.80;54.50
3198;DHT22;1611;49.394;11.136;2023-05-20T01:07:50;14.80;54.70
3198;DHT22;1611;49.394;11.136;2023-05-20T01:10:17;14.80;54.80
3198;DHT22;1611;49.394;11.136;2023-05-20T01:12:47;14.80;54.70
3198;DHT22;1611;49.394;11.136;2023-05-20T01:15:15;14.90;54.80
3198;DHT22;1611;49.394;11.136;2023-05-20T01:17:44;14.90;54.70
3198;DHT22;1611;49.394;11.136;2023-05-20T01:20:13;14.90;54.60
3198;DHT22;1611;49.394;11.136;2023-05-20T01:22:47;14.90;54.50
3198;DHT22;1611;49.394;11.136;2023-05-20T01:25:14;14.90;54.60
3198;DHT22;1611;49.394;11.136;2023-05-20T01:27:41;14.90;54.60
3198;DHT22;1611;49.394;11.136;2023-05-20T01:30:08;14.80;54.90
3198;DHT22;1611;49.394;11.136;2023-05-20T01:32:37;14.80;55.30
3198;DHT22;1611;49.394;11.136;2023-05-20T01:35:06;14.80;55.80
3198;DHT22;1611;49.394;11.136;2023-05-20T01:37:33;14.80;55.80
3198;DHT22;1611;49.394;11.136;2023-05-20T01:40:04;14.80;55.50
3198;DHT22;1611;49.394;11.136;2023-05-20T01:42:33;14.80;55.60
3198;DHT22;1611;49.394;11.136;2023-05-20T01:45:01;14.80;55.60
3198;DHT22;1611;49.394;11.136;2023-05-20T01:47:27;14.80;55.40
3198;DHT22;1611;49.394;11.136;2023-05-20T01:49:54;14.70;55.50
3198;DHT22;1611;49.394;11.136;2023-05-20T01:52:21;14.70;55.90
3198;DHT22;1611;49.394;11.136;2023-05-20T01:54:48;14.80;56.30
3198;DHT22;1611;49.394;11.136;2023-05-20T01:57:18;14.80;56.30
3198;DHT22;1611;49.394;11.136;2023-05-20T01:59:45;14.70;56.00
3198;DHT22;1611;49.394;11.136;2023-05-20T02:02:12;14.70;57.10
3198;DHT22;1611;49.394;11.136;2023-05-20T02:04:39;14.60;56.70
3198;DHT22;1611;49.394;11.136;2023-05-20T02:07:06;14.50;56.50
3198;DHT22;1611;49.394;11.136;2023-05-20T02:09:33;14.50;56.70
3198;DHT22;1611;49.394;11.136;2023-05-20T02:12:00;14.40;57.40
3198;DHT22;1611;49.394;11.136;2023-05-20T02:14:28;14.40;57.60
3198;DHT22;1611;49.394;11.136;2023-05-20T02:16:55;14.40;58.10
3198;DHT22;1611;49.394;11.136;2023-05-20T02:19:21;14.40;58.00
3198;DHT22;1611;49.394;11.136;2023-05-20T02:21:49;14.30;58.50
3198;DHT22;1611;49.394;11.136;2023-05-20T02:24:15;14.20;58.30
3198;DHT22;1611;49.394;11.136;2023-05-20T02:26:44;14.10;58.60
3198;DHT22;1611;49.394;11.136;2023-05-20T02:29:11;14.00;58.80
3198;DHT22;1611;49.394;11.136;2023-05-20T02:31:39;14.10;58.90
3198;DHT22;1611;49.394;11.136;2023-05-20T02:34:06;14.00;59.20
3198;DHT22;1611;49.394;11.136;2023-05-20T02:36:33;14.00;59.20
3198;DHT22;1611;49.394;11.136;2023-05-20T02:38:59;14.00;59.30
3198;DHT22;1611;49.394;11.136;2023-05-20T02:41:26;14.00;59.30
3198;DHT22;1611;49.394;11.136;2023-05-20T02:43:53;14.00;59.40
3198;DHT22;1611;49.394;11.136;2023-05-20T02:46:20;13.90;59.70
3198;DHT22;1611;49.394;11.136;2023-05-20T02:48:48;13.90;59.80
3198;DHT22;1611;49.394;11.136;2023-05-20T02:51:15;13.90;60.00
3198;DHT22;1611;49.394;11.136;2023-05-20T02:53:41;13.90;60.50
3198;DHT22;1611;49.394;11.136;2023-05-20T02:56:08;13.90;60.30
3198;DHT22;1611;49.394;11.136;2023-05-20T02:58:35;14.00;60.00
3198;DHT22;1611;49.394;11.136;2023-05-20T03:01:02;14.00;59.60
3198;DHT22;1611;49.394;11.136;2023-05-20T03:03:29;13.90;59.60
3198;DHT22;1611;49.394;11.136;2023-05-20T03:05:57;14.00;59.60
3198;DHT22;1611;49.394;11.136;2023-05-20T03:08:23;13.90;59.80
3198;DHT22;1611;49.394;11.136;2023-05-20T03:10:50;13.80;60.20
3198;DHT22;1611;49.394;11.136;2023-05-20T03:13:17;13.80;60.50
3198;DHT22;1611;49.394;11.136;2023-05-20T03:15:44;13.80;60.40
3198;DHT22;1611;49.394;11.136;2023-05-20T03:18:11;13.80;60.60
3198;DHT22;1611;49.394;11.136;2023-05-20T03:20:38;13.80;60.40
3198;DHT22;1611;49.394;11.136;2023-05-20T03:23:07;13.90;60.50
3198;DHT22;1611;49.394;11.136;2023-05-20T03:25:34;13.90;60.40
3198;DHT22;1611;49.394;11.136;2023-05-20T03:28:01;13.90;60.10
3198;DHT22;1611;49.394;11.136;2023-05-20T03:30:28;13.90;60.30
3198;DHT22;1611;49.394;11.136;2023-05-20T03:32:55;13.90;60.40
3198;DHT22;1611;49.394;11.136;2023-05-20T03:35:23;13.80;60.50
3198;DHT22;1611;49.394;11.136;2023-05-20T03:37:49;13.90;60.50
3198;DHT22;1611;49.394;11.136;2023-05-20T03:40:19;13.90;60.20
3198;DHT22;1611;49.394;11.136;2023-05-20T03:42:46;13.90;60.30
3198;DHT22;1611;49.394;11.136;2023-05-20T03:45:14;13.80;60.10
3198;DHT22;1611;49.394;11.136;2023-05-20T03:47:41;13.90;60.30
3198;DHT22;1611;49.394;11.136;2023-05-20T03:50:08;13.90;60.40
3198;DHT22;1611;49.394;11.136;2023-05-20T03:52:35;13.90;60.20
3198;DHT22;1611;49.394;11.136;2023-05-20T03:55:03;14.00;60.00
3198;DHT22;1611;49.394;11.136;2023-05-20T03:57:31;13.90;60.00
3198;DHT22;1611;49.394;11.136;2023-05-20T03:59:58;13.90;59.90
3198;DHT22;1611;49.394;11.136;2023-05-20T04:02:26;14.00;60.00
3198;DHT22;1611;49.394;11.136;2023-05-20T04:04:53;14.00;59.70
3198;DHT22;1611;49.394;11.136;2023-05-20T04:07:22;13.80;60.10
3198;DHT22;1611;49.394;11.136;2023-05-20T04:09:48;13.80;60.40
3198;DHT22;1611;49.394;11.136;2023-05-20T04:12:16;13.80;60.80
3198;DHT22;1611;49.394;11.136;2023-05-20T04:14:46;13.70;60.90
3198;DHT22;1611;49.394;11.136;2023-05-20T04:17:14;13.80;60.70
3198;DHT22;1611;49.394;11.136;2023-05-20T04:19:41;13.70;61.20
3198;DHT22;1611;49.394;11.136;2023-05-20T04:22:09;13.70;61.30
3198;DHT22;1611;49.394;11.136;2023-05-20T04:24:36;13.70;61.40
3198;DHT22;1611;49.394;11.136;2023-05-20T04:27:03;13.70;61.50
3198;DHT22;1611;49.394;11.136;2023-05-20T04:29:30;13.70;61.70
3198;DHT22;1611;49.394;11.136;2023-05-20T04:32:00;13.70;61.60
3198;DHT22;1611;49.394;11.136;2023-05-20T04:34:28;13.70;62.10
3198;DHT22;1611;49.394;11.136;2023-05-20T04:36:59;13.70;62.00
3198;DHT22;1611;49.394;11.136;2023-05-20T04:39:26;13.80;61.80
3198;DHT22;1611;49.394;11.136;2023-05-20T04:41:53;13.90;61.30
3198;DHT22;1611;49.394;11.136;2023-05-20T04:44:20;14.00;60.80
3198;DHT22;1611;49.394;11.136;2023-05-20T04:46:47;14.00;60.60
3198;DHT22;1611;49.394;11.136;2023-05-20T04:49:15;14.10;60.20
3198;DHT22;1611;49.394;11.136;2023-05-20T04:51:42;14.20;59.60
3198;DHT22;1611;49.394;11.136;2023-05-20T04:54:11;14.10;59.90
3198;DHT22;1611;49.394;11.136;2023-05-20T04:56:38;14.20;59.60
3198;DHT22;1611;49.394;11.136;2023-05-20T04:59:05;14.20;59.40
3198;DHT22;1611;49.394;11.136;2023-05-20T05:01:32;14.30;59.60
3198;DHT22;1611;49.394;11.136;2023-05-20T05:03:59;14.40;59.10
3198;DHT22;1611;49.394;11.136;2023-05-20T05:06:27;14.50;58.60
3198;DHT22;1611;49.394;11.136;2023-05-20T05:08:54;14.50;58.50
3198;DHT22;1611;49.394;11.136;2023-05-20T05:11:21;14.60;57.70
3198;DHT22;1611;49.394;11.136;2023-05-20T05:13:47;14.70;57.90
3198;DHT22;1611;49.394;11.136;2023-05-20T05:16:14;14.80;57.30
3198;DHT22;1611;49.394;11.136;2023-05-20T05:18:41;14.70;57.30
3198;DHT22;1611;49.394;11.136;2023-05-20T05:21:08;14.70;56.80
3198;DHT22;1611;49.394;11.136;2023-05-20T05:23:36;14.80;57.10
3198;DHT22;1611;49.394;11.136;2023-05-20T05:26:02;14.90;56.30
3198;DHT22;1611;49.394;11.136;2023-05-20T05:28:29;14.90;55.90
3198;DHT22;1611;49.394;11.136;2023-05-20T05:30:56;15.00;56.10
3198;DHT22;1611;49.394;11.136;2023-05-20T05:33:23;15.10;56.10
3198;DHT22;1611;49.394;11.136;2023-05-20T05:35:50;15.30;55.60
3198;DHT22;1611;49.394;11.136;2023-05-20T05:38:17;15.40;54.20
3198;DHT22;1611;49.394;11.136;2023-05-20T05:40:45;15.40;54.10
3198;DHT22;1611;49.394;11.136;2023-05-20T05:43:11;15.60;53.70
3198;DHT22;1611;49.394;11.136;2023-05-20T05:45:38;15.50;53.50
3198;DHT22;1611;49.394;11.136;2023-05-20T05:48:07;15.50;53.30
3198;DHT22;1611;49.394;11.136;2023-05-20T05:50:34;15.50;53.70
3198;DHT22;1611;49.394;11.136;2023-05-20T05:53:00;15.60;52.80
3198;DHT22;1611;49.394;11.136;2023-05-20T05:55:28;15.60;53.10
3198;DHT22;1611;49.394;11.136;2023-05-20T05:57:56;15.70;52.70
3198;DHT22;1611;49.394;11.136;2023-05-20T06:00:23;15.70;52.90
3198;DHT22;1611;49.394;11.136;2023-05-20T06:02:49;15.80;52.10
3198;DHT22;1611;49.394;11.136;2023-05-20T06:05:16;15.70;52.80
3198;DHT22;1611;49.394;11.136;2023-05-20T06:07:43;15.70;52.00
3198;DHT22;1611;49.394;11.136;2023-05-20T06:10:10;15.70;52.20
3198;DHT22;1611;49.394;11.136;2023-05-20T06:12:37;15.90;52.10
3198;DHT22;1611;49.394;11.136;2023-05-20T06:15:06;15.90;51.70
3198;DHT22;1611;49.394;11.136;2023-05-20T06:17:33;16.00;51.00
3198;DHT22;1611;49.394;11.136;2023-05-20T06:20:00;16.00;50.80
3198;DHT22;1611;49.394;11.136;2023-05-20T06:22:27;15.90;51.10
3198;DHT22;1611;49.394;11.136;2023-05-20T06:24:55;16.00;51.40
3198;DHT22;1611;49.394;11.136;2023-05-20T06:27:25;16.10;51.40
3198;DHT22;1611;49.394;11.136;2023-05-20T06:29:51;16.20;50.50
3198;DHT22;1611;49.394;11.136;2023-05-20T06:32:20;16.40;50.10
3198;DHT22;1611;49.394;11.136;2023-05-20T06:34:46;16.50;49.90
3198;DHT22;1611;49.394;11.136;2023-05-20T06:37:13;16.70;49.50
3198;DHT22;1611;49.394;11.136;2023-05-20T06:39:40;16.70;49.10
3198;DHT22;1611;49.394;11.136;2023-05-20T06:42:06;16.70;48.30
3198;DHT22;1611;49.394;11.136;2023-05-20T06:44:33;16.80;48.40
3198;DHT22;1611;49.394;11.136;2023-05-20T06:47:00;16.70;48.30
3198;DHT22;1611;49.394;11.136;2023-05-20T06:49:28;16.90;48.10
3198;DHT22;1611;49.394;11.136;2023-05-20T06:51:55;16.90;47.80
3198;DHT22;1611;49.394;11.136;2023-05-20T06:54:22;16.90;47.70
3198;DHT22;1611;49.394;11.136;2023-05-20T06:56:48;17.00;47.00
3198;DHT22;1611;49.394;11.136;2023-05-20T06:59:15;17.10;47.50
3198;DHT22;1611;49.394;11.136;2023-05-20T07:01:42;17.30;48.00
3198;DHT22;1611;49.394;11.136;2023-05-20T07:04:08;17.20;45.50
3198;DHT22;1611;49.394;11.136;2023-05-20T07:06:37;17.20;45.50
3198;DHT22;1611;49.394;11.136;2023-05-20T07:09:03;17.30;44.90
3198;DHT22;1611;49.394;11.136;2023-05-20T07:11:30;17.40;44.40
3198;DHT22;1611;49.394;11.136;2023-05-20T07:13:57;17.40;44.80
3198;DHT22;1611;49.394;11.136;2023-05-20T07:16:24;17.50;44.50
3198;DHT22;1611;49.394;11.136;2023-05-20T07:18:51;17.60;43.70
3198;DHT22;1611;49.394;11.136;2023-05-20T07:21:18;17.60;44.30
3198;DHT22;1611;49.394;11.136;2023-05-20T07:23:46;17.80;44.30
3198;DHT22;1611;49.394;11.136;2023-05-20T07:26:12;18.00;42.70
3198;DHT22;1611;49.394;11.136;2023-05-20T07:28:39;17.90;42.50
3198;DHT22;1611;49.394;11.136;2023-05-20T07:31:06;18.10;43.00
3198;DHT22;1611;49.394;11.136;2023-05-20T07:33:33;18.10;42.30
3198;DHT22;1611;49.394;11.136;2023-05-20T07:35:59;18.30;43.10
3198;DHT22;1611;49.394;11.136;2023-05-20T07:38:26;18.30;41.90
3198;DHT22;1611;49.394;11.136;2023-05-20T07:40:54;18.40;41.60
3198;DHT22;1611;49.394;11.136;2023-05-20T07:43:21;18.40;42.20
3198;DHT22;1611;49.394;11.136;2023-05-20T07:45:48;18.50;40.90
3198;DHT22;1611;49.394;11.136;2023-05-20T07:48:15;18.60;40.80
3198;DHT22;1611;49.394;11.136;2023-05-20T07:50:41;18.70;40.70
3198;DHT22;1611;49.394;11.136;2023-05-20T07:53:08;18.80;39.60
3198;DHT22;1611;49.394;11.136;2023-05-20T07:55:35;18.90;40.50
3198;DHT22;1611;49.394;11.136;2023-05-20T07:58:04;19.00;39.30
3198;DHT22;1611;49.394;11.136;2023-05-20T08:00:31;19.20;40.00
3198;DHT22;1611;49.394;11.136;2023-05-20T08:02:57;19.10;38.90
3198;DHT22;1611;49.394;11.136;2023-05-20T08:05:24;19.20;39.00
3198;DHT22;1611;49.394;11.136;2023-05-20T08:07:51;19.30;38.30
3198;DHT22;1611;49.394;11.136;2023-05-20T08:10:18;19.40;37.00
3198;DHT22;1611;49.394;11.136;2023-05-20T08:12:45;19.60;36.10
3198;DHT22;1611;49.394;11.136;2023-05-20T08:15:13;19.60;35.40
3198;DHT22;1611;49.394;11.136;2023-05-20T08:17:40;19.70;35.50
3198;DHT22;1611;49.394;11.136;2023-05-20T08:20:09;19.70;34.40
3198;DHT22;1611;49.394;11.136;2023-05-20T08:22:37;19.60;35.30
3198;DHT22;1611;49.394;11.136;2023-05-20T08:25:07;19.70;36.20
3198;DHT22;1611;49.394;11.136;2023-05-20T08:27:34;19.90;36.00
3198;DHT22;1611;49.394;11.136;2023-05-20T08:30:01;20.00;35.50
3198;DHT22;1611;49.394;11.136;2023-05-20T08:32:29;20.20;34.10
3198;DHT22;1611;49.394;11.136;2023-05-20T08:34:57;20.40;34.80
3198;DHT22;1611;49.394;11.136;2023-05-20T08:37:26;20.50;34.60
3198;DHT22;1611;49.394;11.136;2023-05-20T08:39:52;20.60;34.60
3198;DHT22;1611;49.394;11.136;2023-05-20T08:42:21;20.70;34.90
3198;DHT22;1611;49.394;11.136;2023-05-20T08:44:49;20.80;33.10
3198;DHT22;1611;49.394;11.136;2023-05-20T08:47:17;20.90;32.60
3198;DHT22;1611;49.394;11.136;2023-05-20T08:49:46;20.80;32.50
3198;DHT22;1611;49.394;11.136;2023-05-20T08:52:13;20.70;34.10
3198;DHT22;1611;49.394;11.136;2023-05-20T08:54:44;21.00;33.60
3198;DHT22;1611;49.394;11.136;2023-05-20T08:57:11;21.30;32.90
3198;DHT22;1611;49.394;11.136;2023-05-20T08:59:39;21.50;31.90
3198;DHT22;1611;49.394;11.136;2023-05-20T09:02:07;21.70;31.50
3198;DHT22;1611;49.394;11.136;2023-05-20T09:04:34;21.90;30.90
3198;DHT22;1611;49.394;11.136;2023-05-20T09:07:03;21.90;30.50
3198;DHT22;1611;49.394;11.136;2023-05-20T09:09:30;22.00;30.80
3198;DHT22;1611;49.394;11.136;2023-05-20T09:11:58;22.10;28.90
3198;DHT22;1611;49.394;11.136;2023-05-20T09:14:24;22.10;28.90
3198;DHT22;1611;49.394;11.136;2023-05-20T09:16:53;22.20;30.40
3198;DHT22;1611;49.394;11.136;2023-05-20T09:19:21;22.40;29.70
3198;DHT22;1611;49.394;11.136;2023-05-20T09:21:49;22.40;27.80
3198;DHT22;1611;49.394;11.136;2023-05-20T09:24:21;22.40;28.00
3198;DHT22;1611;49.394;11.136;2023-05-20T09:26:48;22.50;28.80
3198;DHT22;1611;49.394;11.136;2023-05-20T09:29:15;22.30;29.00
3198;DHT22;1611;49.394;11.136;2023-05-20T09:31:44;22.40;28.80
3198;DHT22;1611;49.394;11.136;2023-05-20T09:34:10;22.50;29.00
3198;DHT22;1611;49.394;11.136;2023-05-20T09:36:38;22.70;27.20
3198;DHT22;1611;49.394;11.136;2023-05-20T09:39:08;22.80;27.70
3198;DHT22;1611;49.394;11.136;2023-05-20T09:41:38;22.90;27.90
3198;DHT22;1611;49.394;11.136;2023-05-20T09:44:10;23.00;26.20
3198;DHT22;1611;49.394;11.136;2023-05-20T09:46:37;23.10;27.70
3198;DHT22;1611;49.394;11.136;2023-05-20T09:49:05;23.20;29.00
3198;DHT22;1611;49.394;11.136;2023-05-20T09:51:33;23.50;27.30
3198;DHT22;1611;49.394;11.136;2023-05-20T09:54:01;23.50;25.60
3198;DHT22;1611;49.394;11.136;2023-05-20T09:56:30;23.60;25.80
3198;DHT22;1611;49.394;11.136;2023-05-20T09:58:59;23.60;26.40
3198;DHT22;1611;49.394;11.136;2023-05-20T10:01:26;23.60;25.70
3198;DHT22;1611;49.394;11.136;2023-05-20T10:03:54;23.50;25.50
3198;DHT22;1611;49.394;11.136;2023-05-20T10:06:36;23.30;24.80
3198;DHT22;1611;49.394;11.136;2023-05-20T10:09:28;23.20;26.10
3198;DHT22;1611;49.394;11.136;2023-05-20T10:12:06;23.10;24.90
3198;DHT22;1611;49.394;11.136;2023-05-20T10:14:50;23.00;26.50
3198;DHT22;1611;49.394;11.136;2023-05-20T10:17:24;23.20;25.60
3198;DHT22;1611;49.394;11.136;2023-05-20T10:19:57;23.30;25.10
3198;DHT22;1611;49.394;11.136;2023-05-20T10:22:26;23.50;25.60
3198;DHT22;1611;49.394;11.136;2023-05-20T10:24:58;23.60;24.20
3198;DHT22;1611;49.394;11.136;2023-05-20T10:27:25;23.80;25.70
3198;DHT22;1611;49.394;11.136;2023-05-20T10:29:55;23.90;24.40
3198;DHT22;1611;49.394;11.136;2023-05-20T10:32:23;24.00;24.70
3198;DHT22;1611;49.394;11.136;2023-05-20T10:34:50;23.90;23.90
3198;DHT22;1611;49.394;11.136;2023-05-20T10:37:23;23.90;24.30
3198;DHT22;1611;49.394;11.136;2023-05-20T10:39:51;23.80;23.90
3198;DHT22;1611;49.394;11.136;2023-05-20T10:42:27;23.60;24.80
3198;DHT22;1611;49.394;11.136;2023-05-20T10:44:56;23.30;24.80
3198;DHT22;1611;49.394;11.136;2023-05-20T10:47:22;23.20;25.60
3198;DHT22;1611;49.394;11.136;2023-05-20T10:49:49;23.30;25.40
3198;DHT22;1611;49.394;11.136;2023-05-20T10:52:17;23.60;26.30
3198;DHT22;1611;49.394;11.136;2023-05-20T10:54:45;24.00;25.30
3198;DHT22;1611;49.394;11.136;2023-05-20T10:57:11;24.50;24.40
3198;DHT22;1611;49.394;11.136;2023-05-20T10:59:39;24.80;25.30
3198;DHT22;1611;49.394;11.136;2023-05-20T11:02:10;24.80;23.40
3198;DHT22;1611;49.394;11.136;2023-05-20T11:04:38;24.70;22.80
3198;DHT22;1611;49.394;11.136;2023-05-20T11:07:05;24.70;23.00
3198;DHT22;1611;49.394;11.136;2023-05-20T11:09:32;25.00;24.10
3198;DHT22;1611;49.394;11.136;2023-05-20T11:11:59;25.40;22.50
3198;DHT22;1611;49.394;11.136;2023-05-20T11:14:27;25.30;21.30
3198;DHT22;1611;49.394;11.136;2023-05-20T11:16:55;25.70;22.40
3198;DHT22;1611;49.394;11.136;2023-05-20T11:19:24;25.80;19.70
3198;DHT22;1611;49.394;11.136;2023-05-20T11:21:51;26.00;20.80
3198;DHT22;1611;49.394;11.136;2023-05-20T11:24:23;26.40;20.40
3198;DHT22;1611;49.394;11.136;2023-05-20T11:26:50;27.10;18.60
3198;DHT22;1611;49.394;11.136;2023-05-20T11:29:18;26.90;18.20
3198;DHT22;1611;49.394;11.136;2023-05-20T11:31:47;26.70;18.80
3198;DHT22;1611;49.394;11.136;2023-05-20T11:34:14;27.10;18.30
3198;DHT22;1611;49.394;11.136;2023-05-20T11:36:42;26.90;18.30
3198;DHT22;1611;49.394;11.136;2023-05-20T11:39:09;26.50;18.30
3198;DHT22;1611;49.394;11.136;2023-05-20T11:41:38;26.80;19.20
3198;DHT22;1611;49.394;11.136;2023-05-20T11:44:09;27.70;17.90
3198;DHT22;1611;49.394;11.136;2023-05-20T11:46:40;29.10;16.00
3198;DHT22;1611;49.394;11.136;2023-05-20T11:49:07;29.90;14.10
3198;DHT22;1611;49.394;11.136;2023-05-20T11:51:34;30.20;13.80
3198;DHT22;1611;49.394;11.136;2023-05-20T11:54:06;29.30;14.60
3198;DHT22;1611;49.394;11.136;2023-05-20T11:56:34;29.00;16.10
3198;DHT22;1611;49.394;11.136;2023-05-20T11:59:02;29.20;16.20
3198;DHT22;1611;49.394;11.136;2023-05-20T12:01:30;28.60;16.10
3198;DHT22;1611;49.394;11.136;2023-05-20T12:04:02;28.40;17.30
3198;DHT22;1611;49.394;11.136;2023-05-20T12:06:29;28.20;17.30
3198;DHT22;1611;49.394;11.136;2023-05-20T12:08:57;27.80;17.50
3198;DHT22;1611;49.394;11.136;2023-05-20T12:11:26;27.90;17.90
3198;DHT22;1611;49.394;11.136;2023-05-20T12:13:52;27.90;17.90
3198;DHT22;1611;49.394;11.136;2023-05-20T12:16:19;28.00;18.00
3198;DHT22;1611;49.394;11.136;2023-05-20T12:18:46;27.70;18.20
3198;DHT22;1611;49.394;11.136;2023-05-20T12:21:13;28.00;18.00
3198;DHT22;1611;49.394;11.136;2023-05-20T12:23:39;27.70;17.60
3198;DHT22;1611;49.394;11.136;2023-05-20T12:26:06;27.20;18.90
3198;DHT22;1611;49.394;11.136;2023-05-20T12:28:34;27.10;19.50
3198;DHT22;1611;49.394;11.136;2023-05-20T12:31:01;27.10;19.80
3198;DHT22;1611;49.394;11.136;2023-05-20T12:33:28;27.20;19.80
3198;DHT22;1611;49.394;11.136;2023-05-20T12:35:54;27.10;19.90
3198;DHT22;1611;49.394;11.136;2023-05-20T12:38:21;27.00;19.20
3198;DHT22;1611;49.394;11.136;2023-05-20T12:40:48;26.70;19.90
3198;DHT22;1611;49.394;11.136;2023-05-20T12:43:15;26.40;20.30
3198;DHT22;1611;49.394;11.136;2023-05-20T12:45:43;26.50;20.70
3198;DHT22;1611;49.394;11.136;2023-05-20T12:48:10;26.20;20.50
3198;DHT22;1611;49.394;11.136;2023-05-20T12:50:36;26.10;21.20
3198;DHT22;1611;49.394;11.136;2023-05-20T12:53:03;26.20;21.30
3198;DHT22;1611;49.394;11.136;2023-05-20T12:55:30;26.10;21.90
3198;DHT22;1611;49.394;11.136;2023-05-20T12:57:57;26.10;20.90
3198;DHT22;1611;49.394;11.136;2023-05-20T13:00:24;26.70;20.10
3198;DHT22;1611;49.394;11.136;2023-05-20T13:02:52;27.50;19.10
3198;DHT22;1611;49.394;11.136;2023-05-20T13:05:19;27.20;19.00
3198;DHT22;1611;49.394;11.136;2023-05-20T13:07:46;28.00;19.30
3198;DHT22;1611;49.394;11.136;2023-05-20T13:10:13;29.30;16.40
3198;DHT22;1611;49.394;11.136;2023-05-20T13:12:40;31.00;13.60
3198;DHT22;1611;49.394;11.136;2023-05-20T13:15:10;32.20;12.00
3198;DHT22;1611;49.394;11.136;2023-05-20T13:17:37;33.40;10.80
3198;DHT22;1611;49.394;11.136;2023-05-20T13:20:07;33.50;10.60
3198;DHT22;1611;49.394;11.136;2023-05-20T13:22:35;33.50;10.60
3198;DHT22;1611;49.394;11.136;2023-05-20T13:25:02;32.30;11.50
3198;DHT22;1611;49.394;11.136;2023-05-20T13:27:29;31.40;12.90
3198;DHT22;1611;49.394;11.136;2023-05-20T13:29:56;30.50;13.40
3198;DHT22;1611;49.394;11.136;2023-05-20T13:32:23;29.90;14.40
3198;DHT22;1611;49.394;11.136;2023-05-20T13:34:50;29.70;14.30
3198;DHT22;1611;49.394;11.136;2023-05-20T13:37:18;29.00;15.90
3198;DHT22;1611;49.394;11.136;2023-05-20T13:39:44;28.30;16.90
3198;DHT22;1611;49.394;11.136;2023-05-20T13:42:12;28.10;17.70
3198;DHT22;1611;49.394;11.136;2023-05-20T13:44:39;27.80;17.50
3198;DHT22;1611;49.394;11.136;2023-05-20T13:47:05;27.70;18.30
3198;DHT22;1611;49.394;11.136;2023-05-20T13:49:32;27.50;18.70
3198;DHT22;1611;49.394;11.136;2023-05-20T13:51:59;27.60;18.70
3198;DHT22;1611;49.394;11.136;2023-05-20T13:54:27;27.30;19.00
3198;DHT22;1611;49.394;11.136;2023-05-20T13:56:54;27.30;18.80
3198;DHT22;1611;49.394;11.136;2023-05-20T13:59:21;27.10;19.40
3198;DHT22;1611;49.394;11.136;2023-05-20T14:01:47;27.00;19.40
3198;DHT22;1611;49.394;11.136;2023-05-20T14:04:14;26.90;19.30
3198;DHT22;1611;49.394;11.136;2023-05-20T14:06:41;26.40;20.10
3198;DHT22;1611;49.394;11.136;2023-05-20T14:09:08;26.20;20.50
3198;DHT22;1611;49.394;11.136;2023-05-20T14:11:36;26.10;20.00
3198;DHT22;1611;49.394;11.136;2023-05-20T14:14:03;25.90;20.00
3198;DHT22;1611;49.394;11.136;2023-05-20T14:16:30;25.60;20.60
3198;DHT22;1611;49.394;11.136;2023-05-20T14:18:57;25.40;21.50
3198;DHT22;1611;49.394;11.136;2023-05-20T14:21:24;25.20;21.80
3198;DHT22;1611;49.394;11.136;2023-05-20T14:23:52;24.90;22.90
3198;DHT22;1611;49.394;11.136;2023-05-20T14:26:18;24.90;23.40
3198;DHT22;1611;49.394;11.136;2023-05-20T14:28:47;24.90;23.30
3198;DHT22;1611;49.394;11.136;2023-05-20T14:31:14;24.80;22.20
3198;DHT22;1611;49.394;11.136;2023-05-20T14:33:40;24.80;22.30
3198;DHT22;1611;49.394;11.136;2023-05-20T14:36:07;24.80;22.30
3198;DHT22;1611;49.394;11.136;2023-05-20T14:38:35;25.00;22.60
3198;DHT22;1611;49.394;11.136;2023-05-20T14:41:02;25.00;22.70
3198;DHT22;1611;49.394;11.136;2023-05-20T14:43:29;25.20;22.20
3198;DHT22;1611;49.394;11.136;2023-05-20T14:45:58;25.30;22.50
3198;DHT22;1611;49.394;11.136;2023-05-20T14:48:24;25.40;21.60
3198;DHT22;1611;49.394;11.136;2023-05-20T14:50:51;25.50;21.10
3198;DHT22;1611;49.394;11.136;2023-05-20T14:53:18;25.70;20.30
3198;DHT22;1611;49.394;11.136;2023-05-20T14:55:45;25.90;20.40
3198;DHT22;1611;49.394;11.136;2023-05-20T14:58:12;26.00;20.20
3198;DHT22;1611;49.394;11.136;2023-05-20T15:00:38;26.30;19.70
3198;DHT22;1611;49.394;11.136;2023-05-20T15:03:06;26.30;18.20
3198;DHT22;1611;49.394;11.136;2023-05-20T15:05:33;26.30;18.40
3198;DHT22;1611;49.394;11.136;2023-05-20T15:08:00;26.50;18.30
3198;DHT22;1611;49.394;11.136;2023-05-20T15:10:27;26.50;18.30
3198;DHT22;1611;49.394;11.136;2023-05-20T15:12:53;26.50;19.20
3198;DHT22;1611;49.394;11.136;2023-05-20T15:15:20;26.70;18.10
3198;DHT22;1611;49.394;11.136;2023-05-20T15:17:47;26.90;17.90
3198;DHT22;1611;49.394;11.136;2023-05-20T15:20:15;26.90;17.80
3198;DHT22;1611;49.394;11.136;2023-05-20T15:22:42;26.90;17.90
3198;DHT22;1611;49.394;11.136;2023-05-20T15:25:10;26.90;17.80
3198;DHT22;1611;49.394;11.136;2023-05-20T15:27:37;26.70;17.60
3198;DHT22;1611;49.394;11.136;2023-05-20T15:30:04;26.40;19.30
3198;DHT22;1611;49.394;11.136;2023-05-20T15:32:31;26.30;19.10
3198;DHT22;1611;49.394;11.136;2023-05-20T15:34:58;26.10;19.70
3198;DHT22;1611;49.394;11.136;2023-05-20T15:37:26;25.90;20.00
3198;DHT22;1611;49.394;11.136;2023-05-20T15:39:53;25.60;20.40
3198;DHT22;1611;49.394;11.136;2023-05-20T15:42:20;25.60;20.60
3198;DHT22;1611;49.394;11.136;2023-05-20T15:44:47;25.50;20.40
3198;DHT22;1611;49.394;11.136;2023-05-20T15:47:13;25.20;21.40